createdAt,value
2023-02-28T00:00:14.129Z,47.25
2023-02-28T00:03:17.168Z,46.98
2023-02-28T00:06:21.015Z,47.18
2023-02-28T00:09:23.618Z,47.28
2023-02-28T00:12:26.113Z,47.27
2023-02-28T00:15:29.068Z,47.44
2023-02-28T00:18:31.855Z,48.08
2023-02-28T00:21:34.555Z,48.05
2023-02-28T00:24:36.894Z,47.87
2023-02-28T00:27:40.517Z,47.73
2023-02-28T00:30:42.925Z,47.88
2023-02-28T00:33:45.573Z,48.54
2023-02-28T00:36:49.958Z,48.36
2023-02-28T00:39:52.582Z,48.45
2023-02-28T00:42:55.042Z,48.35
2023-02-28T00:45:57.649Z,48.37
2023-02-28T00:49:00.010Z,48.84
2023-02-28T00:52:02.960Z,48.68
2023-02-28T00:55:05.848Z,48.99
2023-02-28T00:58:09.198Z,48.65
2023-02-28T01:01:11.557Z,48.57
2023-02-28T01:04:14.627Z,48.71
2023-02-28T01:07:17.053Z,48.70
2023-02-28T01:10:19.805Z,48.94
2023-02-28T01:13:24.116Z,48.71
2023-02-28T01:16:27.825Z,48.94
2023-02-28T01:19:30.185Z,49.13
2023-02-28T01:22:32.817Z,49.10
2023-02-28T01:25:36.271Z,48.88
2023-02-28T01:28:40.725Z,48.85
2023-02-28T01:31:45.535Z,49.00
2023-02-28T01:34:48.492Z,48.95
2023-02-28T01:37:50.905Z,49.11
2023-02-28T01:40:54.679Z,49.04
2023-02-28T01:44:06.374Z,49.10
2023-02-28T01:47:09.047Z,49.21
2023-02-28T01:50:17.815Z,49.04
2023-02-28T01:53:31.418Z,48.90
2023-02-28T01:56:37.471Z,48.96
2023-02-28T01:59:52.687Z,49.00
2023-02-28T02:02:56.723Z,48.86
2023-02-28T02:05:59.173Z,48.86
2023-02-28T02:09:01.745Z,49.03
2023-02-28T02:12:37.486Z,49.15
2023-02-28T02:15:40.055Z,49.79
2023-02-28T02:18:53.830Z,48.81
2023-02-28T02:22:24.357Z,49.08
2023-02-28T02:25:41.977Z,48.93
2023-02-28T02:28:57.800Z,49.09
2023-02-28T02:32:15.314Z,48.67
2023-02-28T02:35:36.681Z,48.51
2023-02-28T02:38:51.982Z,48.90
2023-02-28T02:41:57.431Z,48.89
2023-02-28T02:45:06.363Z,49.11
2023-02-28T02:48:14.709Z,48.85
2023-02-28T02:51:21.285Z,49.15
2023-02-28T02:54:29.787Z,49.08
2023-02-28T02:57:56.728Z,49.12
2023-02-28T03:01:02.782Z,49.48
2023-02-28T03:04:18.142Z,49.63
2023-02-28T03:07:21.020Z,49.81
2023-02-28T03:10:44.157Z,49.80
2023-02-28T03:14:15.129Z,50.01
2023-02-28T03:17:48.150Z,49.97
2023-02-28T03:21:02.744Z,50.15
2023-02-28T03:24:26.075Z,50.53
2023-02-28T03:27:31.716Z,50.30
2023-02-28T03:31:03.702Z,50.11
2023-02-28T03:34:19.600Z,50.17
2023-02-28T03:37:25.180Z,49.92
2023-02-28T03:40:34.014Z,49.63
2023-02-28T03:43:42.043Z,49.49
2023-02-28T03:47:03.878Z,49.33
2023-02-28T03:50:14.235Z,49.35
2023-02-28T03:53:23.590Z,49.01
2023-02-28T03:56:33.723Z,49.09
2023-02-28T03:59:50.986Z,49.22
2023-02-28T04:02:53.875Z,48.83
2023-02-28T04:05:58.761Z,49.00
2023-02-28T04:09:01.422Z,48.92
2023-02-28T04:12:04.522Z,48.88
2023-02-28T04:15:07.713Z,48.72
2023-02-28T04:18:10.524Z,48.82
2023-02-28T04:21:13.543Z,48.45
2023-02-28T04:24:19.881Z,48.71
2023-02-28T04:27:23.020Z,48.31
2023-02-28T04:30:25.691Z,48.51
2023-02-28T04:33:28.254Z,48.51
2023-02-28T04:36:30.950Z,48.39
2023-02-28T04:39:37.267Z,48.66
2023-02-28T04:42:39.851Z,48.42
2023-02-28T04:45:42.182Z,48.12
2023-02-28T04:48:45.464Z,48.14
2023-02-28T04:51:47.834Z,48.05
2023-02-28T04:54:50.692Z,48.21
2023-02-28T04:57:53.208Z,48.17
2023-02-28T05:01:03.403Z,48.41
2023-02-28T05:04:07.061Z,48.35
2023-02-28T05:07:10.792Z,48.19
2023-02-28T05:10:13.525Z,48.38
2023-02-28T05:13:16.118Z,48.02
2023-02-28T05:16:19.735Z,47.94
2023-02-28T05:19:22.623Z,47.83
2023-02-28T05:22:24.915Z,47.89
2023-02-28T05:25:27.638Z,48.09
2023-02-28T05:28:29.937Z,47.79
2023-02-28T05:31:33.095Z,47.91
2023-02-28T05:34:35.647Z,47.56
2023-02-28T05:37:38.869Z,47.58
2023-02-28T05:40:41.395Z,47.77
2023-02-28T05:43:44.213Z,47.83
2023-02-28T05:46:46.584Z,47.89
2023-02-28T05:49:49.308Z,48.26
2023-02-28T05:52:52.465Z,48.17
2023-02-28T05:55:55.092Z,48.49
2023-02-28T05:58:57.501Z,47.88
2023-02-28T06:02:00.286Z,48.60
2023-02-28T06:05:03.045Z,48.72
2023-02-28T06:08:07.990Z,48.32
2023-02-28T06:11:10.596Z,48.49
2023-02-28T06:14:17.956Z,48.08
2023-02-28T06:17:20.546Z,47.92
2023-02-28T06:20:23.732Z,47.95
2023-02-28T06:23:26.351Z,47.61
2023-02-28T06:26:28.796Z,47.98
2023-02-28T06:29:35.590Z,47.41
2023-02-28T06:32:38.046Z,47.20
2023-02-28T06:35:40.700Z,47.70
2023-02-28T06:38:44.416Z,47.05
2023-02-28T06:41:55.382Z,47.23
2023-02-28T06:44:58.535Z,46.58
2023-02-28T06:48:01.495Z,46.50
2023-02-28T06:51:16.611Z,47.07
2023-02-28T06:54:19.294Z,46.25
2023-02-28T06:57:23.146Z,46.14
2023-02-28T07:00:26.118Z,46.21
2023-02-28T07:03:28.780Z,46.17
2023-02-28T07:06:31.633Z,46.20
2023-02-28T07:09:34.047Z,45.84
2023-02-28T07:12:37.348Z,45.64
2023-02-28T07:15:42.350Z,45.49
2023-02-28T07:18:46.374Z,45.09
2023-02-28T07:21:48.797Z,45.06
2023-02-28T07:24:51.350Z,45.24
2023-02-28T07:27:55.461Z,44.74
2023-02-28T07:30:58.165Z,44.55
2023-02-28T07:34:00.512Z,44.40
2023-02-28T07:37:04.812Z,44.26
2023-02-28T07:40:09.692Z,44.62
2023-02-28T07:43:12.252Z,43.67
2023-02-28T07:46:16.979Z,44.19
2023-02-28T07:49:20.002Z,43.53
2023-02-28T07:52:24.286Z,43.72
2023-02-28T07:55:26.982Z,43.09
2023-02-28T07:58:31.283Z,42.90
2023-02-28T08:01:33.911Z,42.76
2023-02-28T08:04:36.600Z,42.41
2023-02-28T08:07:38.932Z,42.16
2023-02-28T08:10:41.638Z,42.72
2023-02-28T08:13:45.170Z,41.75
2023-02-28T08:16:47.858Z,40.79
2023-02-28T08:19:50.335Z,40.09
2023-02-28T08:22:52.980Z,39.69
2023-02-28T08:25:57.193Z,39.70
2023-02-28T08:29:01.427Z,39.41
2023-02-28T08:32:04.138Z,38.26
2023-02-28T08:35:10.167Z,37.63
2023-02-28T08:38:12.619Z,36.88
2023-02-28T08:41:15.270Z,35.88
2023-02-28T08:44:17.615Z,34.86
2023-02-28T08:47:20.698Z,35.71
2023-02-28T08:50:23.542Z,34.30
2023-02-28T08:53:26.794Z,33.32
2023-02-28T08:56:29.624Z,32.33
2023-02-28T08:59:32.919Z,30.66
2023-02-28T09:02:35.251Z,30.23
2023-02-28T09:05:37.954Z,30.73
2023-02-28T09:08:40.902Z,29.70
2023-02-28T09:11:43.527Z,29.89
2023-02-28T09:14:45.871Z,30.41
2023-02-28T09:17:48.836Z,30.49
2023-02-28T09:20:51.423Z,30.75
2023-02-28T09:23:54.285Z,30.68
2023-02-28T09:27:04.974Z,30.96
2023-02-28T09:30:09.031Z,32.19
2023-02-28T09:33:11.399Z,32.86
2023-02-28T09:36:14.066Z,33.40
2023-02-28T09:39:16.941Z,34.13
2023-02-28T09:42:27.514Z,35.44
2023-02-28T09:45:43.838Z,34.87
2023-02-28T09:48:49.363Z,35.82
2023-02-28T09:52:10.003Z,35.90
2023-02-28T09:55:28.928Z,36.17
2023-02-28T09:58:55.938Z,36.99
2023-02-28T10:02:20.376Z,36.72
2023-02-28T10:05:30.799Z,35.73
2023-02-28T10:08:42.487Z,35.92
2023-02-28T10:14:53.923Z,36.39
2023-02-28T10:18:09.162Z,36.56
2023-02-28T10:21:29.055Z,35.68
2023-02-28T10:24:45.024Z,36.11
2023-02-28T10:27:47.415Z,35.08
2023-02-28T10:30:52.854Z,34.41
2023-02-28T10:33:55.980Z,33.93
2023-02-28T10:37:17.722Z,33.55
2023-02-28T10:40:20.910Z,34.49
2023-02-28T10:43:25.699Z,33.82
2023-02-28T10:46:35.214Z,33.98
2023-02-28T10:49:40.601Z,34.93
2023-02-28T10:52:43.389Z,35.38
2023-02-28T10:55:46.119Z,35.21
2023-02-28T10:59:02.722Z,35.49
2023-02-28T11:02:39.332Z,35.58
2023-02-28T11:05:47.817Z,36.43
2023-02-28T11:08:59.597Z,36.47
2023-02-28T11:12:05.546Z,36.99
2023-02-28T11:15:22.040Z,36.13
2023-02-28T11:18:31.066Z,36.94
2023-02-28T11:21:41.053Z,36.94
2023-02-28T11:24:48.322Z,36.41
2023-02-28T11:27:54.826Z,36.47
2023-02-28T11:31:10.262Z,36.40
2023-02-28T11:34:28.540Z,36.68
2023-02-28T11:37:32.807Z,36.70
2023-02-28T11:40:50.929Z,37.00
2023-02-28T11:44:04.913Z,36.97
2023-02-28T11:47:20.217Z,37.29
2023-02-28T11:50:28.487Z,37.28
2023-02-28T11:53:53.254Z,37.54
2023-02-28T11:56:59.331Z,37.76
2023-02-28T12:00:16.298Z,37.48
2023-02-28T12:03:33.352Z,37.47
2023-02-28T12:06:51.171Z,37.04
2023-02-28T12:10:21.873Z,36.60
2023-02-28T12:13:32.989Z,36.39
2023-02-28T12:16:43.779Z,36.84
2023-02-28T12:20:23.723Z,36.88
2023-02-28T12:23:49.323Z,37.13
2023-02-28T12:26:54.201Z,36.98
2023-02-28T12:30:09.661Z,36.42
2023-02-28T12:33:17.910Z,36.15
2023-02-28T12:36:23.175Z,35.83
2023-02-28T12:39:48.348Z,35.58
2023-02-28T12:42:54.091Z,34.75
2023-02-28T12:46:00.452Z,35.34
2023-02-28T12:49:11.463Z,35.17
2023-02-28T12:52:18.506Z,36.00
2023-02-28T12:55:41.921Z,35.61
2023-02-28T12:58:49.729Z,35.65
2023-02-28T13:02:17.928Z,36.15
2023-02-28T13:05:48.479Z,35.80
2023-02-28T13:09:06.136Z,35.81
2023-02-28T13:12:16.278Z,35.97
2023-02-28T13:15:22.972Z,36.01
2023-02-28T13:18:34.565Z,36.81
2023-02-28T13:21:44.984Z,37.03
2023-02-28T13:24:50.494Z,37.36
2023-02-28T13:28:01.932Z,36.97
2023-02-28T13:31:06.147Z,37.53
2023-02-28T13:34:17.063Z,37.17
2023-02-28T13:37:19.284Z,37.00
2023-02-28T13:40:38.185Z,38.27
2023-02-28T13:44:05.520Z,37.44
2023-02-28T13:47:08.057Z,37.36
2023-02-28T13:50:41.151Z,37.93
2023-02-28T13:53:54.722Z,37.74
2023-02-28T13:57:13.464Z,38.07
2023-02-28T14:00:24.472Z,38.37
2023-02-28T14:03:29.955Z,38.41
2023-02-28T14:06:37.836Z,38.70
2023-02-28T14:09:47.018Z,38.77
2023-02-28T14:12:56.865Z,40.08
2023-02-28T14:16:02.018Z,39.51
2023-02-28T14:19:12.059Z,39.14
2023-02-28T14:22:59.951Z,39.76
2023-02-28T14:26:04.605Z,39.89
2023-02-28T14:29:32.339Z,39.64
2023-02-28T14:32:36.675Z,40.63
2023-02-28T14:36:17.153Z,40.75
2023-02-28T14:39:23.373Z,41.29
2023-02-28T14:42:36.359Z,40.93
2023-02-28T14:45:39.582Z,41.26
2023-02-28T14:48:45.817Z,41.09
2023-02-28T14:51:51.504Z,41.43
2023-02-28T14:55:16.540Z,41.05
2023-02-28T14:58:33.597Z,41.39
2023-02-28T15:01:36.734Z,41.75
2023-02-28T15:04:43.166Z,42.05
2023-02-28T15:07:47.020Z,41.68
2023-02-28T15:11:03.540Z,41.81
2023-02-28T15:14:06.315Z,42.72
2023-02-28T15:17:22.320Z,42.17
2023-02-28T15:20:26.498Z,42.78
2023-02-28T15:23:29.955Z,43.04
2023-02-28T15:26:43.375Z,43.09
2023-02-28T15:29:58.654Z,43.42
2023-02-28T15:33:22.106Z,43.50
2023-02-28T15:36:32.804Z,43.56
2023-02-28T15:39:44.773Z,44.19
2023-02-28T15:43:19.800Z,44.46
2023-02-28T15:46:22.526Z,45.12
2023-02-28T15:49:26.135Z,44.87
2023-02-28T15:52:37.620Z,45.10
2023-02-28T15:55:40.784Z,45.60
2023-02-28T15:58:43.861Z,45.56
2023-02-28T16:01:46.663Z,45.81
2023-02-28T16:05:07.484Z,45.95
2023-02-28T16:08:16.099Z,46.26
2023-02-28T16:11:21.102Z,45.53
2023-02-28T16:14:26.105Z,46.24
2023-02-28T16:17:32.114Z,46.49
2023-02-28T16:20:34.472Z,46.29
2023-02-28T16:23:38.409Z,46.81
2023-02-28T16:26:43.871Z,47.13
2023-02-28T16:29:47.742Z,47.08
2023-02-28T16:32:51.005Z,47.82
2023-02-28T16:35:53.667Z,47.96
2023-02-28T16:38:57.367Z,48.01
2023-02-28T16:41:59.811Z,48.09
2023-02-28T16:45:02.246Z,48.16
2023-02-28T16:48:04.925Z,48.29
2023-02-28T16:51:12.796Z,48.69
2023-02-28T16:54:15.411Z,48.86
2023-02-28T16:57:24.895Z,48.98
2023-02-28T17:00:29.130Z,49.05
2023-02-28T17:03:33.532Z,49.30
2023-02-28T17:06:36.607Z,49.40
2023-02-28T17:09:43.045Z,49.65
2023-02-28T17:12:46.296Z,49.77
2023-02-28T17:15:48.924Z,49.89
2023-02-28T17:18:52.019Z,49.94
2023-02-28T17:21:54.640Z,50.14
2023-02-28T17:24:58.714Z,50.58
2023-02-28T17:28:01.085Z,50.31
2023-02-28T17:31:03.951Z,50.42
2023-02-28T17:34:06.291Z,50.68
2023-02-28T17:37:10.593Z,50.88
2023-02-28T17:40:17.268Z,50.75
2023-02-28T17:43:19.822Z,50.93
2023-02-28T17:46:24.308Z,50.88
2023-02-28T17:49:28.113Z,51.01
2023-02-28T17:52:30.703Z,51.19
2023-02-28T17:55:34.722Z,51.41
2023-02-28T17:58:37.064Z,51.22
2023-02-28T18:01:40.251Z,51.53
2023-02-28T18:04:42.973Z,51.40
2023-02-28T18:07:45.665Z,51.52
2023-02-28T18:10:48.617Z,51.73
2023-02-28T18:13:53.582Z,51.62
2023-02-28T18:16:57.542Z,51.63
2023-02-28T18:20:00.370Z,51.73
2023-02-28T18:23:03.644Z,51.63
2023-02-28T18:26:09.185Z,51.65
2023-02-28T18:29:24.261Z,52.03
2023-02-28T18:32:26.666Z,52.11
2023-02-28T18:35:37.463Z,51.86
2023-02-28T18:38:40.079Z,52.01
2023-02-28T18:41:42.833Z,51.88
2023-02-28T18:44:45.317Z,52.11
2023-02-28T18:47:47.934Z,51.98
2023-02-28T18:50:51.328Z,52.01
2023-02-28T18:53:53.920Z,51.99
2023-02-28T18:56:56.529Z,52.14
2023-02-28T18:59:59.236Z,52.16
2023-02-28T19:03:01.653Z,52.12
2023-02-28T19:06:04.473Z,52.08
2023-02-28T19:09:06.889Z,52.26
2023-02-28T19:12:09.600Z,52.15
2023-02-28T19:15:12.956Z,52.22
2023-02-28T19:18:15.658Z,52.33
2023-02-28T19:21:20.002Z,52.20
2023-02-28T19:24:22.701Z,52.32
2023-02-28T19:27:25.186Z,52.44
2023-02-28T19:30:27.874Z,52.50
2023-02-28T19:33:30.807Z,52.47
2023-02-28T19:36:34.325Z,52.15
2023-02-28T19:39:41.340Z,52.37
2023-02-28T19:42:44.022Z,52.37
2023-02-28T19:45:46.650Z,52.56
2023-02-28T19:48:49.473Z,52.47
2023-02-28T19:51:51.854Z,52.59
2023-02-28T19:54:54.901Z,52.72
2023-02-28T19:57:57.215Z,52.84
2023-02-28T20:01:17.062Z,52.60
2023-02-28T20:04:19.716Z,52.57
2023-02-28T20:07:22.096Z,52.83
2023-02-28T20:10:24.958Z,53.08
2023-02-28T20:13:28.462Z,52.85
2023-02-28T20:16:31.872Z,52.86
2023-02-28T20:19:34.412Z,52.68
2023-02-28T20:22:38.423Z,52.92
2023-02-28T20:25:41.075Z,53.09
2023-02-28T20:28:43.941Z,53.01
2023-02-28T20:31:46.400Z,52.99
2023-02-28T20:34:49.036Z,53.02
2023-02-28T20:37:51.327Z,52.92
2023-02-28T20:41:01.021Z,53.23
2023-02-28T20:44:03.403Z,53.05
2023-02-28T20:47:06.111Z,53.11
2023-02-28T20:50:09.813Z,53.11
2023-02-28T20:53:12.455Z,53.21
2023-02-28T20:56:20.080Z,53.13
2023-02-28T20:59:22.891Z,53.21
2023-02-28T21:02:26.536Z,53.11
2023-02-28T21:05:29.203Z,53.16
2023-02-28T21:08:31.707Z,53.46
2023-02-28T21:11:36.523Z,53.12
2023-02-28T21:14:39.154Z,53.09
2023-02-28T21:17:41.894Z,53.05
2023-02-28T21:20:44.931Z,52.97
2023-02-28T21:23:48.929Z,53.22
2023-02-28T21:26:52.666Z,52.95
2023-02-28T21:29:55.149Z,53.14
2023-02-28T21:32:57.942Z,53.20
2023-02-28T21:36:10.156Z,53.48
2023-02-28T21:39:16.344Z,53.16
2023-02-28T21:42:18.945Z,53.25
2023-02-28T21:45:21.245Z,53.09
2023-02-28T21:48:24.259Z,53.18
2023-02-28T21:51:31.517Z,53.08
2023-02-28T21:54:34.703Z,53.07
2023-02-28T21:57:37.090Z,53.22
2023-02-28T22:00:41.450Z,53.21
2023-02-28T22:03:45.440Z,53.01
2023-02-28T22:07:00.015Z,53.22
2023-02-28T22:10:02.870Z,53.21
2023-02-28T22:13:05.225Z,53.19
2023-02-28T22:16:16.457Z,53.15
2023-02-28T22:19:20.126Z,53.12
2023-02-28T22:22:22.762Z,53.27
2023-02-28T22:25:25.074Z,53.16
2023-02-28T22:28:30.126Z,53.00
2023-02-28T22:31:35.123Z,53.09
2023-02-28T22:34:37.736Z,52.89
2023-02-28T22:37:40.083Z,52.93
2023-02-28T22:40:43.115Z,52.99
2023-02-28T22:43:49.870Z,53.14
2023-02-28T22:46:54.186Z,53.02
2023-02-28T22:49:56.408Z,53.04
2023-02-28T22:52:58.946Z,53.00
2023-02-28T22:56:02.245Z,53.03
2023-02-28T22:59:05.593Z,52.83
2023-02-28T23:02:07.940Z,53.05
2023-02-28T23:05:12.411Z,53.00
2023-02-28T23:08:14.694Z,52.87
2023-02-28T23:11:26.256Z,52.96
2023-02-28T23:14:28.639Z,53.03
2023-02-28T23:17:32.231Z,52.99
2023-02-28T23:20:34.908Z,52.90
2023-02-28T23:23:37.511Z,53.45
2023-02-28T23:26:45.950Z,53.09
2023-02-28T23:29:48.559Z,52.89
2023-02-28T23:32:50.924Z,53.24
2023-02-28T23:35:54.112Z,53.13
2023-02-28T23:38:56.614Z,53.27
2023-02-28T23:42:00.649Z,53.25
2023-02-28T23:45:04.636Z,53.55
2023-02-28T23:48:07.320Z,53.61
2023-02-28T23:51:13.645Z,54.03
2023-02-28T23:54:17.583Z,53.76
2023-02-28T23:57:19.857Z,53.85
